Time;durP1;ratioP1;P1;durP2;ratioP2;P2;SDS_P1;SDS_P2;PMS_P1;PMS_P2;Temp;Humidity;BMP_temperature;BMP_pressure;BME280_temperature;BME280_humidity;BME280_pressure;Samples;Min_cycle;Max_cycle;Signal;HPM_P1;HPM_P2
2021/09/22 00:02:18;;;;;;;3.08;2.88;;;25.80;46.40;;;;;;5053939;28;20032;-53
2021/09/22 00:04:45;;;;;;;2.80;2.67;;;25.80;46.30;;;;;;5057636;28;20029;-50
2021/09/22 00:07:12;;;;;;;1.92;1.83;;;25.80;46.20;;;;;;5050113;28;20044;-53
2021/09/22 00:09:40;;;;;;;3.03;2.30;;;25.80;46.40;;;;;;5049285;28;20408;-53
2021/09/22 00:12:07;;;;;;;2.17;2.08;;;25.80;46.30;;;;;;5054724;28;20128;-52
2021/09/22 00:14:34;;;;;;;3.05;2.08;;;25.80;46.20;;;;;;5053320;28;20045;-50
2021/09/22 00:17:02;;;;;;;2.42;2.22;;;25.80;46.40;;;;;;5053837;28;20470;-52
2021/09/22 00:19:29;;;;;;;1.98;1.88;;;25.80;46.30;;;;;;5059866;28;20501;-53
2021/09/22 00:21:56;;;;;;;2.10;2.00;;;25.80;46.10;;;;;;5048990;28;20481;-53
2021/09/22 00:24:23;;;;;;;1.92;1.83;;;25.80;46.40;;;;;;5056977;28;20617;-51
2021/09/22 00:26:52;;;;;;;1.83;1.73;;;25.80;46.30;;;;;;5062535;28;20120;-54
2021/09/22 00:29:19;;;;;;;1.95;1.85;;;25.80;46.20;;;;;;5055906;28;20041;-51
2021/09/22 00:31:47;;;;;;;2.20;2.10;;;25.80;46.20;;;;;;5054494;28;20067;-52
2021/09/22 00:34:16;;;;;;;2.10;2.00;;;25.80;46.10;;;;;;5060477;28;20033;-53
2021/09/22 00:36:43;;;;;;;2.30;2.17;;;25.80;46.20;;;;;;5053302;28;20049;-52
2021/09/22 00:39:10;;;;;;;2.63;2.30;;;25.80;46.20;;;;;;5065080;28;20080;-50
2021/09/22 00:41:37;;;;;;;2.20;2.10;;;25.80;46.30;;;;;;5058017;28;20067;-52
2021/09/22 00:44:06;;;;;;;2.05;1.92;;;25.70;46.30;;;;;;5056557;28;20115;-54
2021/09/22 00:46:33;;;;;;;2.08;1.98;;;25.70;46.30;;;;;;5058110;28;20052;-50
2021/09/22 00:49:00;;;;;;;2.58;2.45;;;25.70;46.40;;;;;;5061034;28;20501;-50
2021/09/22 00:51:33;;;;;;;3.67;3.47;;;25.70;46.50;;;;;;5063042;28;20127;-52
2021/09/22 00:54:01;;;;;;;5.28;4.65;;;25.70;46.50;;;;;;5036061;28;20513;-50
2021/09/22 00:56:28;;;;;;;5.78;5.22;;;25.60;46.50;;;;;;5054282;28;20029;-51
2021/09/22 00:58:57;;;;;;;7.07;5.57;;;25.60;46.40;;;;;;5050590;28;20131;-49
2021/09/22 01:01:26;;;;;;;4.60;4.22;;;25.60;46.50;;;;;;5049354;28;20041;-50
2021/09/22 01:03:53;;;;;;;4.18;3.78;;;25.60;46.50;;;;;;5063050;28;20064;-53
2021/09/22 01:06:20;;;;;;;4.57;4.28;;;25.50;46.40;;;;;;5063386;28;20052;-51
2021/09/22 01:08:47;;;;;;;5.38;5.00;;;25.50;46.50;;;;;;5060680;28;20607;-51
2021/09/22 01:11:14;;;;;;;7.55;4.35;;;25.50;46.50;;;;;;5055617;28;20048;-50
2021/09/22 01:13:41;;;;;;;5.80;4.80;;;25.40;46.40;;;;;;5047768;28;20086;-49
2021/09/22 01:16:09;;;;;;;7.75;5.13;;;25.40;46.40;;;;;;5047864;28;20110;-50
2021/09/22 01:18:37;;;;;;;4.10;3.70;;;25.40;46.50;;;;;;5062829;28;20119;-51
2021/09/22 01:21:05;;;;;;;4.55;3.78;;;25.40;46.40;;;;;;5064099;28;20044;-49
2021/09/22 01:23:33;;;;;;;4.68;4.22;;;25.40;46.40;;;;;;5047822;28;20037;-53
2021/09/22 01:26:06;;;;;;;4.25;3.83;;;25.30;46.40;;;;;;5052727;28;20040;-49
2021/09/22 01:28:45;;;;;;;4.10;3.58;;;25.30;46.40;;;;;;5049650;28;20040;-50
2021/09/22 01:31:14;;;;;;;4.10;3.78;;;25.30;46.40;;;;;;5059864;28;20033;-49
2021/09/22 01:33:43;;;;;;;4.80;4.32;;;25.30;46.50;;;;;;5062492;28;20036;-50
2021/09/22 01:36:19;;;;;;;2.97;2.78;;;25.30;46.50;;;;;;5053531;28;20055;-50
2021/09/22 01:38:55;;;;;;;4.15;3.85;;;25.30;46.50;;;;;;5060592;28;20459;-54
2021/09/22 01:41:23;;;;;;;4.68;3.20;;;25.30;46.60;;;;;;5053148;28;20049;-52
2021/09/22 01:44:04;;;;;;;4.18;3.88;;;25.20;46.50;;;;;;5050067;28;20036;-49
2021/09/22 01:46:49;;;;;;;3.85;3.60;;;25.20;46.50;;;;;;5049450;28;20047;-51
2021/09/22 01:49:24;;;;;;;3.38;3.13;;;25.20;46.60;;;;;;5046060;28;20049;-50
2021/09/22 01:52:02;;;;;;;3.33;3.13;;;25.20;46.60;;;;;;5015043;28;20041;-52
2021/09/22 01:54:35;;;;;;;5.07;3.28;;;25.10;46.50;;;;;;5061971;28;20049;-51
2021/09/22 01:57:05;;;;;;;3.53;3.22;;;25.20;46.60;;;;;;5054477;28;20920;-53
2021/09/22 01:59:32;;;;;;;4.03;3.63;;;25.10;46.60;;;;;;5055490;28;20051;-50
2021/09/22 02:02:34;;;;;;;4.68;3.28;;;25.10;46.60;;;;;;5017279;28;20068;-52
2021/09/22 02:05:21;;;;;;;5.68;3.33;;;25.10;46.60;;;;;;5015511;28;20690;-53
2021/09/22 02:07:57;;;;;;;3.40;3.20;;;25.00;46.60;;;;;;5015551;28;20545;-53
2021/09/22 02:10:29;;;;;;;3.33;3.13;;;25.00;46.60;;;;;;5015649;28;20085;-53
2021/09/22 02:12:56;;;;;;;4.18;3.78;;;25.00;46.70;;;;;;5018594;28;20050;-53
2021/09/22 02:15:24;;;;;;;6.50;2.88;;;25.00;46.70;;;;;;5002373;28;20156;-59
2021/09/22 02:18:10;;;;;;;3.63;3.33;;;25.00;46.80;;;;;;5020865;28;20525;-54
2021/09/22 02:20:39;;;;;;;3.45;3.15;;;24.90;46.70;;;;;;5015217;28;20125;-53
2021/09/22 02:23:20;;;;;;;3.20;3.00;;;24.90;46.70;;;;;;5015514;28;20049;-52
2021/09/22 02:25:50;;;;;;;2.85;2.65;;;24.90;46.80;;;;;;5015441;28;20041;-50
2021/09/22 02:28:17;;;;;;;3.50;3.25;;;24.90;47.30;;;;;;5011739;28;20038;-54
2021/09/22 02:30:46;;;;;;;3.17;2.95;;;24.90;46.80;;;;;;4988984;28;20056;-50
2021/09/22 02:33:14;;;;;;;3.67;3.47;;;24.90;46.80;;;;;;5009545;28;20127;-50
2021/09/22 02:35:42;;;;;;;2.88;2.67;;;24.90;46.80;;;;;;5027131;28;20057;-51
2021/09/22 02:38:32;;;;;;;2.90;2.80;;;24.90;46.80;;;;;;5049221;28;20044;-53
2021/09/22 02:41:03;;;;;;;3.25;3.05;;;24.90;46.90;;;;;;5051182;28;20045;-50
2021/09/22 02:43:30;;;;;;;2.78;2.55;;;24.90;46.90;;;;;;5054457;28;20048;-53
2021/09/22 02:45:57;;;;;;;3.35;2.75;;;24.90;47.00;;;;;;5044608;28;20116;-52
2021/09/22 02:48:35;;;;;;;2.67;2.47;;;24.80;46.90;;;;;;5045679;28;20045;-50
2021/09/22 02:51:03;;;;;;;3.05;2.95;;;24.80;47.00;;;;;;5060776;28;20516;-49
2021/09/22 02:53:33;;;;;;;3.50;3.30;;;24.80;47.50;;;;;;5051120;28;20068;-50
2021/09/22 02:56:00;;;;;;;2.60;2.50;;;24.80;47.00;;;;;;5049174;28;20045;-51
2021/09/22 02:58:29;;;;;;;3.13;2.88;;;24.80;47.10;;;;;;5044949;28;20041;-53
2021/09/22 03:00:59;;;;;;;2.80;2.70;;;24.80;47.00;;;;;;5055405;28;20047;-50
2021/09/22 03:03:27;;;;;;;3.58;3.08;;;24.80;47.00;;;;;;5060957;28;20040;-53
2021/09/22 03:05:54;;;;;;;2.45;2.30;;;24.80;47.00;;;;;;5047785;28;20480;-53
2021/09/22 03:08:22;;;;;;;3.25;3.05;;;24.80;47.00;;;;;;5050189;28;20051;-50
2021/09/22 03:10:49;;;;;;;2.53;2.33;;;24.80;47.00;;;;;;5055835;28;20123;-49
2021/09/22 03:13:16;;;;;;;2.63;2.53;;;24.70;46.90;;;;;;5053537;28;20052;-52
2021/09/22 03:15:45;;;;;;;2.50;2.30;;;24.70;46.90;;;;;;5045784;28;20472;-53
2021/09/22 03:18:12;;;;;;;2.70;2.60;;;24.80;47.10;;;;;;5048649;28;20049;-51
2021/09/22 03:20:39;;;;;;;2.95;2.85;;;24.70;47.00;;;;;;5046488;28;20818;-51
2021/09/22 03:23:06;;;;;;;3.58;3.38;;;24.70;47.00;;;;;;5048902;28;20067;-51
2021/09/22 03:25:37;;;;;;;2.72;2.50;;;24.70;47.00;;;;;;5048320;28;20045;-52
2021/09/22 03:28:04;;;;;;;3.85;2.67;;;24.70;47.00;;;;;;5044563;28;20126;-52
2021/09/22 03:30:33;;;;;;;2.88;2.67;;;24.70;47.00;;;;;;5060450;28;20041;-50
2021/09/22 03:33:14;;;;;;;3.85;2.88;;;24.70;47.10;;;;;;5057073;28;20045;-48
2021/09/22 03:35:42;;;;;;;2.63;2.38;;;24.70;47.10;;;;;;5056219;28;20045;-53
2021/09/22 03:38:09;;;;;;;2.10;2.00;;;24.70;47.10;;;;;;5053996;28;20143;-50
2021/09/22 03:40:38;;;;;;;2.95;2.75;;;24.70;47.10;;;;;;5047092;28;20053;-52
2021/09/22 03:43:06;;;;;;;3.72;3.53;;;24.70;47.10;;;;;;5059837;28;20094;-52
2021/09/22 03:45:33;;;;;;;6.70;3.72;;;24.70;47.10;;;;;;5065250;28;20048;-51
2021/09/22 03:48:01;;;;;;;3.35;2.72;;;24.70;47.10;;;;;;5055684;28;20727;-53
2021/09/22 03:50:29;;;;;;;2.67;2.40;;;24.60;47.10;;;;;;5057913;28;20497;-54
2021/09/22 03:53:17;;;;;;;2.85;2.65;;;24.60;47.10;;;;;;5057991;28;20534;-54
2021/09/22 03:55:46;;;;;;;2.30;2.20;;;24.60;47.10;;;;;;5059153;28;20041;-53
2021/09/22 03:58:16;;;;;;;2.30;2.20;;;24.60;47.10;;;;;;5064084;28;20051;-53
2021/09/22 04:00:44;;;;;;;2.13;2.03;;;24.60;47.10;;;;;;5049140;28;20128;-54
2021/09/22 04:03:11;;;;;;;3.00;2.10;;;24.60;47.10;;;;;;5041434;28;20042;-52
2021/09/22 04:05:40;;;;;;;2.80;2.70;;;24.60;47.10;;;;;;5051857;28;20049;-54
2021/09/22 04:08:08;;;;;;;2.17;2.08;;;24.60;47.10;;;;;;5052272;28;20132;-53
2021/09/22 04:10:40;;;;;;;3.83;3.53;;;24.60;47.10;;;;;;5053550;28;20053;-55
2021/09/22 04:13:07;;;;;;;2.58;2.40;;;24.60;47.10;;;;;;5050122;28;20051;-51
2021/09/22 04:15:41;;;;;;;2.55;2.45;;;24.60;47.10;;;;;;5047659;28;20044;-54
2021/09/22 04:18:10;;;;;;;2.60;2.40;;;24.60;47.20;;;;;;5051936;28;20041;-52
2021/09/22 04:20:37;;;;;;;2.65;2.47;;;24.60;47.20;;;;;;5050953;28;20541;-52
2021/09/22 04:23:07;;;;;;;1.77;1.75;;;24.50;47.10;;;;;;5049855;28;20037;-52
2021/09/22 04:25:34;;;;;;;3.33;3.10;;;24.60;47.20;;;;;;5044488;28;20051;-50
2021/09/22 04:28:05;;;;;;;2.88;2.78;;;24.50;47.20;;;;;;5049156;28;20045;-52
2021/09/22 04:30:50;;;;;;;2.85;2.42;;;24.50;47.20;;;;;;5037538;28;20052;-50
2021/09/22 04:33:36;;;;;;;5.20;2.45;;;24.50;47.20;;;;;;5049162;28;20046;-54
2021/09/22 04:36:22;;;;;;;2.05;1.95;;;24.50;47.30;;;;;;5047558;28;20060;-52
2021/09/22 04:39:10;;;;;;;2.00;1.80;;;24.50;47.30;;;;;;5053635;28;20033;-50
2021/09/22 04:41:55;;;;;;;2.33;2.22;;;24.50;47.30;;;;;;5052054;28;20052;-50
2021/09/22 04:44:41;;;;;;;3.00;2.67;;;24.50;47.30;;;;;;5050502;28;20052;-51
2021/09/22 04:47:29;;;;;;;3.55;2.13;;;24.40;47.20;;;;;;5056214;28;20071;-53
2021/09/22 04:50:14;;;;;;;3.47;3.28;;;24.50;47.30;;;;;;5055835;28;20041;-54
2021/09/22 04:53:00;;;;;;;2.50;2.30;;;24.40;47.30;;;;;;5048362;28;20503;-53
2021/09/22 04:55:48;;;;;;;2.05;1.92;;;24.40;47.20;;;;;;5050404;28;20047;-52
2021/09/22 04:58:33;;;;;;;3.40;2.13;;;24.40;47.30;;;;;;5048895;28;20044;-49
2021/09/22 05:01:19;;;;;;;2.53;2.42;;;24.40;47.20;;;;;;5060739;28;20389;-49
2021/09/22 05:04:04;;;;;;;2.67;2.57;;;24.40;47.20;;;;;;5050880;28;20505;-50
2021/09/22 05:06:50;;;;;;;3.40;2.72;;;24.40;47.20;;;;;;5039298;28;20041;-50
2021/09/22 05:09:36;;;;;;;6.68;2.20;;;24.40;47.20;;;;;;5049151;28;20056;-54
2021/09/22 05:12:23;;;;;;;2.50;2.08;;;24.40;47.20;;;;;;5046764;28;20053;-52
2021/09/22 05:15:10;;;;;;;3.35;1.90;;;24.40;47.20;;;;;;5053063;28;20053;-53
2021/09/22 05:17:56;;;;;;;2.00;1.80;;;24.40;47.20;;;;;;5051211;28;20079;-51
2021/09/22 05:21:01;;;;;;;2.53;1.67;;;24.40;47.20;;;;;;5026509;28;20403;-49
2021/09/22 05:23:47;;;;;;;5.22;2.08;;;24.40;47.20;;;;;;5025995;28;20049;-49
2021/09/22 05:26:33;;;;;;;4.10;2.67;;;24.40;47.20;;;;;;5025041;28;20501;-51
2021/09/22 05:29:20;;;;;;;1.58;1.48;;;24.30;47.10;;;;;;5024686;28;20526;-51
2021/09/22 05:32:06;;;;;;;2.25;2.05;;;24.40;47.20;;;;;;5024056;28;20111;-50
2021/09/22 05:34:52;;;;;;;1.85;1.65;;;24.40;47.20;;;;;;5024219;28;20053;-48
2021/09/22 05:37:37;;;;;;;2.73;2.53;;;24.30;47.10;;;;;;5024763;28;20049;-50
2021/09/22 05:40:24;;;;;;;1.90;1.80;;;24.30;47.10;;;;;;5024836;28;20049;-52
2021/09/22 05:43:24;;;;;;;1.67;1.52;;;24.30;47.10;;;;;;4991623;28;20129;-51
2021/09/22 05:46:11;;;;;;;3.20;2.13;;;24.30;47.10;;;;;;4981395;28;20141;-53
2021/09/22 05:48:57;;;;;;;2.42;1.48;;;24.30;47.10;;;;;;4973554;28;20108;-50
2021/09/22 05:51:47;;;;;;;2.58;2.35;;;24.30;47.10;;;;;;4942522;28;20059;-51
2021/09/22 05:54:50;;;;;;;2.22;2.13;;;24.30;47.00;;;;;;4946590;29;20074;-52
2021/09/22 05:57:36;;;;;;;2.40;2.20;;;24.30;47.10;;;;;;4944819;29;20250;-50
2021/09/22 06:00:22;;;;;;;;;;;24.30;47.10;;;;;;4943828;29;20103;-49
2021/09/22 06:03:10;;;;;;;1.92;1.65;;;24.30;47.10;;;;;;4947442;29;20447;-49
2021/09/22 06:06:09;;;;;;;2.55;2.35;;;24.20;47.10;;;;;;4946563;28;20062;-49
2021/09/22 06:08:56;;;;;;;2.13;2.13;;;24.30;47.20;;;;;;4947020;28;20070;-52
2021/09/22 06:11:36;;;;;;;2.25;2.15;;;24.30;47.10;;;;;;4943894;29;20090;-48
2021/09/22 06:14:09;;;;;;;5.15;1.75;;;24.30;47.10;;;;;;4945741;29;20051;-52
2021/09/22 06:16:36;;;;;;;2.78;2.55;;;24.30;47.10;;;;;;4945733;29;20133;-50
2021/09/22 06:19:22;;;;;;;1.90;1.80;;;24.30;47.00;;;;;;4967845;28;20212;-51
2021/09/22 06:21:49;;;;;;;3.35;2.22;;;24.30;47.00;;;;;;4984804;28;20443;-50
2021/09/22 06:24:19;;;;;;;3.10;2.45;;;24.30;47.00;;;;;;4982666;28;20767;-52
2021/09/22 06:27:06;;;;;;;2.38;2.17;;;24.30;47.00;;;;;;4975370;28;20069;-50
2021/09/22 06:29:33;;;;;;;2.13;2.03;;;24.30;47.00;;;;;;5040617;28;20920;-52
2021/09/22 06:32:01;;;;;;;2.08;1.88;;;24.30;47.00;;;;;;5059362;28;20790;-53
2021/09/22 06:34:49;;;;;;;2.42;2.28;;;24.30;47.00;;;;;;5047595;28;20045;-52
2021/09/22 06:37:23;;;;;;;4.45;2.78;;;24.30;47.00;;;;;;5078854;28;20041;-50
2021/09/22 06:40:22;;;;;;;2.17;2.08;;;24.30;47.60;;;;;;5056203;28;20124;-53
2021/09/22 06:42:50;;;;;;;1.63;1.45;;;24.40;47.00;;;;;;5056815;28;20049;-52
2021/09/22 06:45:20;;;;;;;2.40;2.22;;;24.30;46.90;;;;;;5062953;28;20169;-52
2021/09/22 06:47:47;;;;;;;2.53;2.28;;;24.40;47.00;;;;;;5045271;28;20410;-58
2021/09/22 06:50:16;;;;;;;6.50;2.03;;;24.40;47.10;;;;;;5047802;28;20776;-58
2021/09/22 06:52:43;;;;;;;3.47;2.10;;;24.30;47.10;;;;;;5049528;28;20114;-58
2021/09/22 06:55:11;;;;;;;3.08;1.63;;;24.30;47.10;;;;;;5061723;28;20086;-58
2021/09/22 06:57:38;;;;;;;2.85;1.95;;;24.40;47.30;;;;;;5046858;28;20037;-58
2021/09/22 07:00:09;;;;;;;2.83;2.58;;;24.40;47.40;;;;;;5062014;28;20076;-58
2021/09/22 07:02:37;;;;;;;2.58;2.38;;;24.40;47.40;;;;;;5051157;28;20058;-59
2021/09/22 07:05:06;;;;;;;2.13;1.92;;;24.40;47.30;;;;;;5050134;28;20037;-59
2021/09/22 07:07:35;;;;;;;4.10;2.63;;;24.40;47.30;;;;;;5047762;28;20040;-59
2021/09/22 07:10:03;;;;;;;3.83;2.10;;;24.40;47.30;;;;;;5059148;28;20044;-58
2021/09/22 07:12:31;;;;;;;6.15;2.15;;;24.40;47.20;;;;;;5058630;28;20071;-60
2021/09/22 07:14:58;;;;;;;2.72;2.38;;;24.40;47.20;;;;;;5059636;28;20045;-59
2021/09/22 07:17:26;;;;;;;2.22;2.13;;;24.40;47.10;;;;;;5057148;28;20147;-59
2021/09/22 07:19:53;;;;;;;2.40;2.20;;;24.40;47.10;;;;;;5058773;28;20114;-60
2021/09/22 07:22:20;;;;;;;4.72;2.65;;;24.50;47.10;;;;;;5049906;28;20120;-60
2021/09/22 07:24:49;;;;;;;3.10;2.55;;;24.40;47.00;;;;;;5065457;28;20140;-60
2021/09/22 07:27:16;;;;;;;3.05;2.60;;;24.40;47.00;;;;;;5055152;28;20153;-60
2021/09/22 07:29:44;;;;;;;3.83;2.70;;;24.40;46.90;;;;;;5062004;28;20040;-60
2021/09/22 07:32:11;;;;;;;6.80;3.47;;;24.40;46.90;;;;;;5062832;28;20123;-60
2021/09/22 07:34:39;;;;;;;3.55;3.25;;;24.40;46.90;;;;;;5058004;28;20045;-60
2021/09/22 07:37:10;;;;;;;2.42;2.33;;;24.40;46.80;;;;;;5049911;28;20148;-60
2021/09/22 07:39:38;;;;;;;3.38;2.88;;;24.40;46.80;;;;;;5048781;28;20103;-60
2021/09/22 07:42:11;;;;;;;6.47;2.88;;;24.50;46.80;;;;;;5064991;28;20068;-60
2021/09/22 07:44:38;;;;;;;4.95;3.30;;;24.50;46.70;;;;;;5060411;28;20120;-59
2021/09/22 07:47:05;;;;;;;5.60;3.42;;;24.50;46.70;;;;;;5047541;28;20033;-60
2021/09/22 07:49:32;;;;;;;3.58;2.92;;;24.40;46.60;;;;;;5047217;28;20099;-60
2021/09/22 07:52:00;;;;;;;3.67;3.20;;;24.50;46.70;;;;;;5063064;28;20065;-60
2021/09/22 07:54:27;;;;;;;3.97;2.58;;;24.40;46.60;;;;;;5049226;28;20135;-59
2021/09/22 07:56:54;;;;;;;4.55;4.05;;;24.50;46.60;;;;;;5063447;28;20051;-60
2021/09/22 07:59:23;;;;;;;5.72;3.22;;;24.50;46.60;;;;;;5049160;28;20156;-60
2021/09/22 08:01:50;;;;;;;4.82;3.28;;;24.50;46.60;;;;;;5051962;28;20391;-60
2021/09/22 08:04:17;;;;;;;6.20;3.50;;;24.50;46.50;;;;;;5044467;28;20052;-60
2021/09/22 08:06:44;;;;;;;4.05;3.05;;;24.50;46.50;;;;;;5033520;28;20040;-60
2021/09/22 08:09:11;;;;;;;9.45;3.60;;;24.50;46.50;;;;;;5050757;28;20044;-60
2021/09/22 08:11:39;;;;;;;5.55;3.58;;;24.50;46.50;;;;;;5060415;28;20436;-60
2021/09/22 08:14:06;;;;;;;7.53;3.28;;;24.50;46.40;;;;;;5060563;28;20050;-60
2021/09/22 08:16:35;;;;;;;6.85;3.85;;;24.50;46.40;;;;;;5062643;28;20138;-59
2021/09/22 08:19:02;;;;;;;7.00;4.30;;;24.50;46.40;;;;;;5048685;28;20068;-60
2021/09/22 08:21:29;;;;;;;6.65;3.92;;;24.50;47.00;;;;;;5064560;28;20389;-60
2021/09/22 08:23:56;;;;;;;6.70;4.03;;;24.50;47.30;;;;;;5063538;28;20133;-59
2021/09/22 08:26:23;;;;;;;5.63;3.78;;;24.50;47.30;;;;;;5055570;28;20033;-59
2021/09/22 08:28:51;;;;;;;4.63;3.88;;;24.50;47.30;;;;;;5053071;28;20124;-59
2021/09/22 08:31:18;;;;;;;5.38;4.18;;;24.50;47.30;;;;;;5061206;28;20041;-59
2021/09/22 08:33:46;;;;;;;5.60;3.70;;;24.60;47.40;;;;;;5031923;28;20580;-59
2021/09/22 08:36:14;;;;;;;9.93;4.10;;;24.60;47.40;;;;;;5059631;28;20048;-59
2021/09/22 08:38:41;;;;;;;10.50;4.22;;;24.60;47.40;;;;;;5059247;28;20443;-59
2021/09/22 08:41:08;;;;;;;6.53;3.80;;;24.60;47.40;;;;;;5059645;28;20040;-59
2021/09/22 08:43:36;;;;;;;7.20;4.40;;;24.60;47.40;;;;;;5057181;28;20045;-59
2021/09/22 08:46:03;;;;;;;6.00;4.38;;;24.60;47.40;;;;;;5044824;28;20037;-59
2021/09/22 08:48:31;;;;;;;8.57;4.78;;;24.60;47.40;;;;;;5045681;28;20087;-60
2021/09/22 08:51:00;;;;;;;7.28;5.13;;;24.60;47.50;;;;;;5047948;28;20040;-58
2021/09/22 08:53:27;;;;;;;7.13;5.32;;;24.60;47.60;;;;;;5048729;28;20065;-59
2021/09/22 08:55:55;;;;;;;14.27;5.55;;;24.60;47.70;;;;;;5048375;28;20041;-58
2021/09/22 08:58:22;;;;;;;6.45;4.88;;;24.60;47.80;;;;;;5048383;28;20428;-59
2021/09/22 09:00:49;;;;;;;5.47;4.95;;;24.60;47.80;;;;;;5061365;28;20052;-58
2021/09/22 09:03:30;;;;;;;4.93;4.38;;;24.60;47.80;;;;;;5065584;28;20072;-59
2021/09/22 09:06:16;;;;;;;8.80;5.05;;;24.60;47.90;;;;;;5051153;28;20047;-59
2021/09/22 09:08:43;;;;;;;9.90;5.53;;;24.60;47.90;;;;;;5048875;28;20131;-59
2021/09/22 09:11:10;;;;;;;9.57;4.85;;;24.60;48.00;;;;;;5049107;28;20140;-59
2021/09/22 09:13:46;;;;;;;5.70;4.18;;;24.60;48.00;;;;;;5049906;28;20080;-60
2021/09/22 09:16:17;;;;;;;7.57;5.45;;;24.60;48.00;;;;;;5045503;28;20076;-60
2021/09/22 09:18:47;;;;;;;7.25;3.75;;;24.60;48.00;;;;;;5064303;28;20108;-59
2021/09/22 09:21:14;;;;;;;5.93;4.95;;;24.60;48.00;;;;;;5060964;28;20119;-59
2021/09/22 09:23:52;;;;;;;5.72;4.30;;;24.60;48.00;;;;;;5049797;28;20069;-59
2021/09/22 09:26:23;;;;;;;4.70;3.35;;;24.60;47.90;;;;;;5053706;28;20040;-59
2021/09/22 09:28:53;;;;;;;5.13;4.25;;;24.60;48.00;;;;;;5046444;28;20051;-60
2021/09/22 09:31:21;;;;;;;7.07;4.55;;;24.70;48.00;;;;;;5048196;28;20576;-59
2021/09/22 09:33:52;;;;;;;4.72;4.18;;;24.70;48.00;;;;;;5046820;28;20057;-59
2021/09/22 09:36:25;;;;;;;7.57;3.55;;;24.70;48.00;;;;;;5047328;28;20126;-59
2021/09/22 09:38:57;;;;;;;4.85;4.20;;;24.70;47.90;;;;;;5048300;28;20040;-59
2021/09/22 09:41:36;;;;;;;5.18;3.88;;;24.70;47.80;;;;;;5046874;28;20068;-60
2021/09/22 09:44:22;;;;;;;5.25;4.53;;;24.70;47.70;;;;;;5045279;28;20041;-60
2021/09/22 09:46:50;;;;;;;4.53;4.03;;;24.70;47.60;;;;;;5046869;28;20041;-60
2021/09/22 09:49:20;;;;;;;3.97;3.70;;;24.80;47.50;;;;;;5046737;28;20037;-59
2021/09/22 09:51:58;;;;;;;5.30;3.75;;;24.80;47.60;;;;;;5045047;28;20041;-59
2021/09/22 09:54:52;;;;;;;6.10;3.85;;;24.80;47.50;;;;;;5121916;27;20452;-60
2021/09/22 09:57:21;;;;;;;4.15;3.20;;;24.80;47.50;;;;;;5103982;28;20143;-59
2021/09/22 09:59:50;;;;;;;4.22;3.78;;;24.80;47.50;;;;;;5117212;28;20168;-59
2021/09/22 10:02:25;;;;;;;4.57;4.18;;;24.90;47.40;;;;;;5105031;28;20143;-60
2021/09/22 10:04:53;;;;;;;4.10;3.58;;;24.90;47.30;;;;;;5103729;28;20092;-59
2021/09/22 10:07:20;;;;;;;5.43;3.80;;;24.90;47.30;;;;;;5103497;28;20097;-59
2021/09/22 10:09:49;;;;;;;4.90;3.95;;;24.90;47.30;;;;;;5100841;28;20100;-59
2021/09/22 10:12:19;;;;;;;4.40;4.00;;;24.90;47.20;;;;;;5107028;28;20534;-60
2021/09/22 10:14:48;;;;;;;5.32;3.30;;;25.00;47.30;;;;;;5104851;28;20048;-59
2021/09/22 10:17:16;;;;;;;3.13;2.53;;;24.90;47.20;;;;;;5103526;28;20127;-59
2021/09/22 10:19:45;;;;;;;3.72;2.88;;;24.90;47.20;;;;;;5102235;28;20040;-61
2021/09/22 10:22:13;;;;;;;4.43;3.30;;;25.00;47.20;;;;;;5103351;28;20039;-61
2021/09/22 10:24:55;;;;;;;3.47;3.05;;;25.00;47.30;;;;;;5103721;27;20416;-60
2021/09/22 10:27:35;;;;;;;3.05;2.67;;;25.00;47.20;;;;;;5124150;27;20810;-60
2021/09/22 10:30:17;;;;;;;6.68;3.20;;;25.00;47.20;;;;;;5084941;27;20385;-60
2021/09/22 10:32:56;;;;;;;3.50;2.72;;;25.00;47.70;;;;;;5082120;28;21316;-60
2021/09/22 10:35:40;;;;;;;2.97;2.78;;;25.10;47.10;;;;;;5064029;28;20500;-60
2021/09/22 10:38:46;;;;;;;2.80;2.17;;;25.10;47.10;;;;;;5089901;27;20477;-60
2021/09/22 10:41:30;;;;;;;2.53;2.38;;;25.10;46.90;;;;;;5082466;27;20417;-62
2021/09/22 10:44:31;;;;;;;4.38;2.80;;;25.20;47.10;;;;;;5081419;27;21003;-62
2021/09/22 10:47:26;;;;;;;5.28;2.13;;;25.20;46.90;;;;;;5079818;27;20459;-59
2021/09/22 10:50:08;;;;;;;2.28;2.08;;;25.20;47.00;;;;;;5073857;28;20476;-62
2021/09/22 10:52:48;;;;;;;1.98;1.77;;;25.20;47.00;;;;;;5078399;27;20425;-61
2021/09/22 10:55:29;;;;;;;2.80;2.20;;;25.20;47.00;;;;;;5081856;28;20401;-61
2021/09/22 10:58:13;;;;;;;5.25;2.55;;;25.20;46.90;;;;;;5080337;28;20455;-61
2021/09/22 11:00:52;;;;;;;4.00;2.08;;;25.20;46.90;;;;;;5083324;27;20432;-61
2021/09/22 11:03:58;;;;;;;2.90;1.63;;;25.30;47.10;;;;;;5082703;27;20390;-60
2021/09/22 11:06:58;;;;;;;4.78;1.85;;;25.30;47.00;;;;;;5082578;28;20381;-60
2021/09/22 11:09:37;;;;;;;2.83;1.35;;;25.30;46.90;;;;;;5120978;27;20437;-61
2021/09/22 11:12:17;;;;;;;4.95;1.80;;;25.30;46.90;;;;;;5085081;27;20413;-59
2021/09/22 11:14:59;;;;;;;2.80;1.92;;;25.30;46.70;;;;;;5069209;27;21220;-59
2021/09/22 11:17:39;;;;;;;3.03;1.85;;;25.30;46.60;;;;;;5141070;27;20393;-60
2021/09/22 11:20:19;;;;;;;1.80;1.70;;;25.30;46.50;;;;;;5095291;27;20436;-60
2021/09/22 11:23:07;;;;;;;2.08;1.25;;;25.30;46.40;;;;;;5074398;28;21220;-60
2021/09/22 11:25:49;;;;;;;3.88;1.58;;;25.40;46.40;;;;;;5094486;27;20394;-60
2021/09/22 11:28:28;;;;;;;2.03;1.85;;;25.40;46.30;;;;;;5118901;27;20427;-60
2021/09/22 11:31:08;;;;;;;2.30;1.20;;;25.40;46.20;;;;;;5079713;27;20393;-60
2021/09/22 11:33:47;;;;;;;1.10;0.93;;;25.40;46.10;;;;;;5145484;27;20906;-60
2021/09/22 11:36:30;;;;;;;1.48;1.38;;;25.40;46.00;;;;;;5082804;27;20393;-60
2021/09/22 11:42:03;;;;;;;1.05;0.93;;;25.40;45.90;;;;;;5071161;27;20382;-60
2021/09/22 11:44:44;;;;;;;2.20;0.70;;;25.50;45.80;;;;;;5060951;27;20403;-59
2021/09/22 11:47:23;;;;;;;0.88;0.82;;;25.50;45.70;;;;;;5070221;28;20434;-61
2021/09/22 11:50:04;;;;;;;1.38;0.73;;;25.50;45.60;;;;;;5098407;27;20919;-60
2021/09/22 11:52:48;;;;;;;1.40;1.30;;;25.50;45.60;;;;;;5117659;27;20533;-60
2021/09/22 11:55:28;;;;;;;3.28;1.00;;;25.50;45.50;;;;;;5079008;27;20913;-60
2021/09/22 11:58:09;;;;;;;1.40;1.23;;;25.60;45.50;;;;;;5080570;27;20442;-59
2021/09/22 12:00:52;;;;;;;1.98;0.95;;;25.60;45.40;;;;;;5100562;27;20405;-60
2021/09/22 12:03:34;;;;;;;6.15;1.00;;;25.60;45.40;;;;;;5102922;27;20384;-60
2021/09/22 12:06:15;;;;;;;5.60;1.17;;;25.70;45.50;;;;;;5067068;28;20394;-59
2021/09/22 12:08:55;;;;;;;1.75;0.75;;;25.70;45.50;;;;;;5156903;27;20390;-59
2021/09/22 12:11:35;;;;;;;1.02;0.77;;;25.70;45.50;;;;;;5071388;28;20411;-56
2021/09/22 12:14:27;;;;;;;0.98;0.60;;;25.70;45.50;;;;;;5074130;28;20389;-61
2021/09/22 12:17:09;;;;;;;2.47;0.55;;;25.80;45.90;;;;;;5122309;27;20393;-65
2021/09/22 12:19:49;;;;;;;2.38;0.80;;;25.80;46.20;;;;;;5103178;27;20756;-65
2021/09/22 12:22:23;;;;;;;8.27;0.98;;;25.80;46.30;;;;;;5094389;28;20049;-65
2021/09/22 12:25:03;;;;;;;1.42;1.33;;;25.90;46.40;;;;;;5081200;27;20385;-65
2021/09/22 12:27:50;;;;;;;6.05;1.50;;;25.80;46.30;;;;;;5061201;27;20860;-67
2021/09/22 12:30:32;;;;;;;3.95;0.70;;;25.90;46.30;;;;;;5080599;27;20800;-65
2021/09/22 12:33:12;;;;;;;1.55;1.45;;;26.00;46.40;;;;;;5086590;27;20389;-65
2021/09/22 12:35:52;;;;;;;2.35;0.82;;;26.00;46.40;;;;;;5101415;27;20384;-65
2021/09/22 12:38:43;;;;;;;1.52;0.68;;;26.00;46.40;;;;;;5079953;27;21218;-64
2021/09/22 12:41:23;;;;;;;2.90;0.50;;;26.10;46.30;;;;;;5073300;27;20393;-64
2021/09/22 12:44:03;;;;;;;2.40;0.50;;;26.10;46.10;;;;;;5072995;27;20434;-65
2021/09/22 12:46:44;;;;;;;1.42;0.60;;;26.10;45.90;;;;;;5049117;28;20582;-65
2021/09/22 12:49:24;;;;;;;2.05;0.60;;;26.10;45.70;;;;;;5126510;27;20436;-66
2021/09/22 12:52:04;;;;;;;2.92;0.85;;;26.20;45.60;;;;;;5079873;28;20453;-64
2021/09/22 12:54:44;;;;;;;6.88;1.67;;;26.20;46.70;;;;;;5100695;27;20444;-66
2021/09/22 12:57:23;;;;;;;2.45;1.30;;;26.30;48.10;;;;;;5083383;27;20389;-66
2021/09/22 13:00:32;;;;;;;11.82;1.58;;;26.30;48.90;;;;;;5072075;27;20446;-66
2021/09/22 13:03:13;;;;;;;7.40;1.45;;;26.30;48.70;;;;;;5070256;28;20433;-66
2021/09/22 13:05:56;;;;;;;2.05;0.77;;;26.30;48.50;;;;;;5070090;28;20445;-66
2021/09/22 13:08:50;;;;;;;7.43;0.82;;;26.40;48.30;;;;;;5064168;27;21194;-65
2021/09/22 13:11:34;;;;;;;6.57;0.60;;;26.40;48.10;;;;;;5090810;27;20401;-66
2021/09/22 13:14:16;;;;;;;7.47;0.63;;;26.40;48.00;;;;;;5095529;27;20381;-66
2021/09/22 13:16:57;;;;;;;3.67;0.95;;;26.50;47.80;;;;;;5095358;27;20913;-66
2021/09/22 13:19:36;;;;;;;2.47;1.30;;;26.50;47.60;;;;;;5076684;27;20453;-66
2021/09/22 13:22:16;;;;;;;6.43;0.55;;;26.50;47.40;;;;;;5099409;27;20386;-66
2021/09/22 13:24:56;;;;;;;2.40;1.00;;;26.60;47.20;;;;;;5081432;27;20476;-66
2021/09/22 13:27:36;;;;;;;0.85;0.50;;;26.60;47.10;;;;;;5082143;27;20447;-66
2021/09/22 13:30:16;;;;;;;8.32;0.88;;;26.60;47.00;;;;;;5085351;28;20397;-66
2021/09/22 13:32:55;;;;;;;4.30;1.25;;;26.60;46.90;;;;;;5080730;28;20813;-66